Terminal Aerodrome Forecast
Issued by NWS Wilmington, OH

Home | Current Version | Previous Version | Text Only | Print | Product List | Glossary On
Versions: 1 2 3 4 5 6 7 8 9 10 11 12 13 14 15 16 17 18 19 20 21 22 23 24 25 26 27 28 29 30 31
000
FTUS41 KILN 060800 AAA
TAFCVG
TAF AMD
KCVG 060858Z 0609/0712 VRB03KT P6SM SKC
      TEMPO 0609/0613 5SM BR
     FM061300 19007KT P6SM SCT250
     FM062300 21008KT P6SM SCT100
     FM070900 22009KT P6SM SCT018
      TEMPO 0710/0712 BKN018=

USA.gov is the U.S. government's official web portal to all federal, state and local government web resources and services.